createdAt,value
2018-04-10T00:01:08.679Z,58.66
2018-04-10T00:03:37.731Z,57.28
2018-04-10T00:06:06.780Z,59.45
2018-04-10T00:08:35.824Z,61.01
2018-04-10T00:11:05.919Z,59.72
2018-04-10T00:13:34.953Z,58.40
2018-04-10T00:16:04.990Z,60.29
2018-04-10T00:21:12.307Z,60.11
2018-04-10T00:23:41.847Z,62.55
2018-04-10T00:26:10.924Z,61.60
2018-04-10T00:31:15.643Z,64.14
2018-04-10T00:33:45.652Z,61.83
2018-04-10T00:36:14.698Z,61.87
2018-04-10T00:38:43.748Z,62.59
2018-04-10T00:41:12.833Z,63.48
2018-04-10T00:43:41.870Z,63.43
2018-04-10T00:46:11.855Z,63.83
2018-04-10T00:48:40.892Z,62.09
2018-04-10T00:51:10.030Z,63.55
2018-04-10T00:53:39.252Z,61.53
2018-04-10T00:56:08.277Z,60.74
2018-04-10T00:58:37.339Z,62.38
2018-04-10T01:01:06.395Z,62.73
2018-04-10T01:03:36.371Z,62.13
2018-04-10T01:06:05.400Z,64.00
2018-04-10T01:08:34.574Z,63.36
2018-04-10T01:11:03.586Z,64.47
2018-04-10T01:13:33.599Z,64.41
2018-04-10T01:16:02.709Z,65.21
2018-04-10T01:18:31.752Z,65.14
2018-04-10T01:21:00.793Z,65.29
2018-04-10T01:23:29.835Z,65.52
2018-04-10T01:28:34.581Z,65.28
2018-04-10T01:31:03.621Z,64.33
2018-04-10T01:33:32.656Z,64.93
2018-04-10T01:36:01.709Z,64.52
2018-04-10T01:38:30.753Z,64.57
2018-04-10T01:40:59.949Z,65.34
2018-04-10T01:43:29.017Z,65.68
2018-04-10T01:45:58.057Z,66.59
2018-04-10T01:48:27.268Z,67.07
2018-04-10T01:50:56.309Z,65.86
2018-04-10T01:56:01.101Z,66.18
2018-04-10T01:58:30.136Z,64.58
2018-04-10T02:01:01.125Z,66.08
2018-04-10T02:03:37.818Z,65.33
2018-04-10T02:08:42.925Z,64.48
2018-04-10T02:11:11.970Z,65.70
2018-04-10T02:13:41.152Z,65.79
2018-04-10T02:16:10.176Z,66.69
2018-04-10T02:18:39.217Z,65.78
2018-04-10T02:21:08.266Z,66.68
2018-04-10T02:23:37.477Z,65.23
2018-04-10T02:26:06.518Z,66.28
2018-04-10T02:28:35.582Z,66.90
2018-04-10T02:31:04.616Z,68.21
2018-04-10T02:33:33.662Z,68.77
2018-04-10T02:36:03.721Z,67.74
2018-04-10T02:38:33.695Z,67.04
2018-04-10T02:41:02.741Z,66.60
2018-04-10T02:43:31.801Z,66.17
2018-04-10T02:46:00.868Z,67.77
2018-04-10T02:48:29.918Z,68.36
2018-04-10T02:50:58.992Z,68.23
2018-04-10T02:53:28.057Z,67.05
2018-04-10T02:58:33.065Z,67.19
2018-04-10T03:01:02.119Z,66.37
2018-04-10T03:03:31.144Z,67.43
2018-04-10T03:06:00.189Z,66.89
2018-04-10T03:08:29.249Z,67.12
2018-04-10T03:10:58.283Z,66.97
2018-04-10T03:13:27.320Z,68.01
2018-04-10T03:15:56.370Z,67.39
2018-04-10T03:18:26.325Z,66.81
2018-04-10T03:23:31.125Z,66.62
2018-04-10T03:26:00.354Z,66.45
2018-04-10T03:28:29.411Z,66.68
2018-04-10T03:30:59.782Z,67.12
2018-04-10T03:33:28.828Z,65.63
2018-04-10T03:35:57.908Z,66.16
2018-04-10T03:38:27.074Z,66.95
2018-04-10T03:40:56.100Z,65.54
2018-04-10T03:46:00.898Z,66.88
2018-04-10T03:48:40.706Z,65.77
2018-04-10T03:51:09.743Z,66.82
2018-04-10T03:53:38.850Z,66.04
2018-04-10T03:56:07.875Z,66.43
2018-04-10T03:58:37.113Z,65.94
2018-04-10T04:01:06.164Z,66.89
2018-04-10T04:03:35.237Z,66.22
2018-04-10T04:06:04.359Z,67.12
2018-04-10T04:08:33.540Z,67.68
2018-04-10T04:11:02.616Z,67.87
2018-04-10T04:13:31.826Z,68.47
2018-04-10T04:16:00.858Z,67.53
2018-04-10T04:18:48.054Z,68.35
2018-04-10T04:24:09.999Z,68.71
2018-04-10T04:26:39.984Z,68.42
2018-04-10T04:29:10.561Z,69.04
2018-04-10T04:31:39.626Z,68.77
2018-04-10T04:34:08.665Z,68.83
2018-04-10T04:36:37.943Z,68.97
2018-04-10T04:39:06.958Z,69.52
2018-04-10T04:44:11.702Z,69.19
2018-04-10T04:46:40.736Z,69.57
2018-04-10T04:49:10.006Z,69.54
2018-04-10T04:54:14.994Z,68.88
2018-04-10T04:56:44.043Z,68.76
2018-04-10T04:59:13.085Z,68.75
2018-04-10T05:01:42.756Z,68.53
2018-04-10T05:04:11.793Z,68.82
2018-04-10T05:06:41.129Z,67.65
2018-04-10T05:09:10.356Z,67.84
2018-04-10T05:11:39.385Z,68.81
2018-04-10T05:16:44.118Z,67.96
2018-04-10T05:21:48.492Z,66.36
2018-04-10T05:24:17.861Z,66.92
2018-04-10T05:26:46.912Z,65.89
2018-04-10T05:29:16.445Z,65.61
2018-04-10T05:34:21.223Z,65.03
2018-04-10T05:36:50.368Z,65.53
2018-04-10T05:39:19.402Z,65.62
2018-04-10T05:41:49.116Z,64.93
2018-04-10T05:44:18.166Z,65.47
2018-04-10T05:46:47.214Z,65.54
2018-04-10T05:49:16.593Z,65.52
2018-04-10T05:51:45.620Z,64.99
2018-04-10T05:54:21.570Z,64.19
2018-04-10T05:56:50.605Z,64.16
2018-04-10T05:59:19.755Z,63.68
2018-04-10T06:01:48.800Z,63.97
2018-04-10T06:04:17.854Z,62.97
2018-04-10T06:06:46.908Z,63.76
2018-04-10T06:09:16.216Z,63.09
2018-04-10T06:11:45.397Z,63.45
2018-04-10T06:16:50.178Z,62.55
2018-04-10T06:21:55.070Z,61.68
2018-04-10T06:24:24.178Z,63.18
2018-04-10T06:29:29.364Z,63.09
2018-04-10T06:31:58.438Z,61.49
2018-04-10T06:34:28.008Z,61.33
2018-04-10T06:39:33.041Z,60.51
2018-04-10T06:42:02.509Z,60.31
2018-04-10T06:44:31.564Z,59.30
2018-04-10T06:47:00.618Z,59.94
2018-04-10T06:49:30.514Z,58.74
2018-04-10T06:51:59.570Z,58.23
2018-04-10T06:54:29.142Z,57.22
2018-04-10T06:59:34.143Z,57.59
2018-04-10T07:02:03.302Z,57.77
2018-04-10T07:04:32.806Z,56.68
2018-04-10T07:07:01.968Z,57.62
2018-04-10T07:09:31.032Z,57.63
2018-04-10T07:12:00.594Z,58.27
2018-04-10T07:14:29.714Z,58.56
2018-04-10T07:19:35.518Z,59.77
2018-04-10T07:22:04.584Z,58.64
2018-04-10T07:27:09.377Z,59.00
2018-04-10T07:29:38.687Z,58.29
2018-04-10T07:32:07.852Z,57.04
2018-04-10T07:34:36.942Z,56.88
2018-04-10T07:39:52.086Z,57.96
2018-04-10T07:42:21.332Z,56.97
2018-04-10T07:44:50.374Z,57.02
2018-04-10T07:47:20.092Z,57.29
2018-04-10T07:49:49.155Z,56.97
2018-04-10T07:52:18.716Z,57.04
2018-04-10T07:54:47.763Z,56.55
2018-04-10T07:57:16.820Z,56.88
2018-04-10T07:59:46.346Z,58.10
2018-04-10T08:02:15.374Z,58.21
2018-04-10T08:04:44.442Z,55.85
2018-04-10T08:07:13.505Z,54.62
2018-04-10T08:09:42.992Z,55.29
2018-04-10T08:12:12.025Z,54.57
2018-04-10T08:14:41.984Z,54.29
2018-04-10T08:17:11.037Z,52.93
2018-04-10T08:19:40.137Z,52.89
2018-04-10T08:22:09.350Z,52.89
2018-04-10T08:24:38.408Z,51.52
2018-04-10T08:27:08.110Z,50.49
2018-04-10T08:29:37.166Z,51.17
2018-04-10T08:32:06.949Z,51.50
2018-04-10T08:34:36.003Z,51.78
2018-04-10T08:37:05.062Z,51.46
2018-04-10T08:39:34.452Z,50.62
2018-04-10T08:42:03.493Z,47.75
2018-04-10T08:47:09.633Z,50.64
2018-04-10T08:49:38.705Z,50.41
2018-04-10T08:52:08.357Z,50.79
2018-04-10T08:54:37.426Z,49.80
2018-04-10T09:02:18.956Z,49.58
2018-04-10T09:04:48.001Z,48.82
2018-04-10T09:07:17.555Z,50.19
2018-04-10T09:09:46.598Z,50.14
2018-04-10T09:12:17.154Z,50.42
2018-04-10T09:14:46.229Z,49.90
2018-04-10T09:17:17.343Z,50.19
2018-04-10T09:19:46.891Z,49.55
2018-04-10T09:22:16.638Z,47.35
2018-04-10T09:24:46.044Z,48.40
2018-04-10T09:27:16.161Z,49.34
2018-04-10T09:29:45.657Z,49.59
2018-04-10T09:32:15.983Z,48.88
2018-04-10T09:34:45.937Z,47.49
2018-04-10T09:37:16.337Z,47.12
2018-04-10T09:39:45.402Z,47.07
2018-04-10T09:44:53.197Z,45.24
2018-04-10T09:49:58.038Z,45.22
2018-04-10T09:52:27.398Z,44.63
2018-04-10T09:54:56.469Z,44.41
2018-04-10T09:57:25.853Z,43.74
2018-04-10T09:59:54.936Z,44.13
2018-04-10T10:02:24.156Z,42.70
2018-04-10T10:04:53.595Z,43.93
2018-04-10T10:07:22.630Z,44.32
2018-04-10T10:09:51.797Z,43.70
2018-04-10T10:12:20.867Z,43.30
2018-04-10T10:14:49.961Z,40.06
2018-04-10T10:17:19.827Z,41.39
2018-04-10T10:19:48.922Z,42.22
2018-04-10T10:22:18.606Z,40.90
2018-04-10T10:24:47.672Z,39.84
2018-04-10T10:27:17.334Z,39.97
2018-04-10T10:29:46.395Z,37.32
2018-04-10T10:32:16.483Z,36.45
2018-04-10T10:34:45.541Z,38.74
2018-04-10T10:37:15.069Z,38.13
2018-04-10T10:39:47.564Z,37.17
2018-04-10T10:42:16.600Z,36.72
2018-04-10T10:44:46.534Z,36.22
2018-04-10T10:47:16.944Z,35.76
2018-04-10T10:49:47.010Z,35.90
2018-04-10T10:52:16.609Z,34.75
2018-04-10T10:54:46.742Z,34.23
2018-04-10T10:57:16.701Z,34.42
2018-04-10T11:02:22.209Z,33.60
2018-04-10T11:04:51.355Z,34.13
2018-04-10T11:07:20.541Z,33.05
2018-04-10T11:09:51.253Z,35.50
2018-04-10T11:12:20.537Z,31.98
2018-04-10T11:14:50.646Z,30.87
2018-04-10T11:17:20.058Z,30.60
2018-04-10T11:19:49.097Z,29.85
2018-04-10T11:22:18.388Z,31.71
2018-04-10T11:24:47.450Z,32.40
2018-04-10T11:27:16.519Z,31.99
2018-04-10T11:29:47.214Z,31.15
2018-04-10T11:32:18.030Z,30.05
2018-04-10T11:34:47.788Z,29.80
2018-04-10T11:37:17.106Z,27.96
2018-04-10T11:39:47.193Z,27.61
2018-04-10T11:42:16.241Z,29.63
2018-04-10T11:44:46.676Z,29.11
2018-04-10T11:47:15.702Z,27.42
2018-04-10T11:49:45.992Z,28.67
2018-04-10T11:52:15.070Z,28.20
2018-04-10T11:54:46.161Z,31.67
2018-04-10T11:57:15.223Z,29.73
2018-04-10T12:02:20.610Z,27.39
2018-04-10T12:07:25.514Z,25.53
2018-04-10T12:09:54.576Z,25.44
2018-04-10T12:12:23.627Z,25.79
2018-04-10T12:14:52.686Z,24.37
2018-04-10T12:17:22.133Z,24.08
2018-04-10T12:19:51.192Z,25.01
2018-04-10T12:22:20.739Z,24.53
2018-04-10T12:24:51.200Z,24.94
2018-04-10T12:27:20.249Z,24.63
2018-04-10T12:32:25.583Z,22.85
2018-04-10T12:34:56.319Z,23.01
2018-04-10T12:37:25.425Z,22.58
2018-04-10T12:39:55.532Z,22.21
2018-04-10T12:42:24.590Z,20.32
2018-04-10T12:44:53.653Z,20.75
2018-04-10T12:49:59.004Z,18.55
2018-04-10T12:52:28.068Z,21.30
2018-04-10T12:54:57.146Z,22.41
2018-04-10T12:57:26.197Z,21.95
2018-04-10T12:59:55.253Z,22.72
2018-04-10T13:05:00.929Z,21.62
2018-04-10T13:07:29.999Z,21.60
2018-04-10T13:09:59.389Z,22.58
2018-04-10T13:12:29.679Z,23.91
2018-04-10T13:14:59.146Z,24.18
2018-04-10T13:20:04.272Z,25.11
2018-04-10T13:22:33.305Z,24.12
2018-04-10T13:25:02.385Z,24.61
2018-04-10T13:27:31.909Z,24.64
2018-04-10T13:30:00.977Z,24.48
2018-04-10T13:32:30.467Z,25.84
2018-04-10T13:34:59.481Z,24.92
2018-04-10T13:37:28.544Z,23.50
2018-04-10T13:39:58.015Z,24.63
2018-04-10T13:42:27.086Z,24.97
2018-04-10T13:44:56.141Z,25.29
2018-04-10T13:47:25.209Z,26.05
2018-04-10T13:49:54.677Z,26.64
2018-04-10T13:52:23.737Z,27.55
2018-04-10T13:54:57.593Z,29.35
2018-04-10T13:57:30.749Z,29.49
2018-04-10T14:00:03.439Z,28.95
2018-04-10T14:02:36.714Z,30.09
2018-04-10T14:05:09.646Z,29.33
2018-04-10T14:07:43.241Z,28.70
2018-04-10T14:10:16.831Z,30.46
2018-04-10T14:15:31.316Z,29.99
2018-04-10T14:18:03.946Z,29.84
2018-04-10T14:20:41.990Z,29.98
2018-04-10T14:23:14.138Z,29.44
2018-04-10T14:25:48.289Z,28.66
2018-04-10T14:28:17.325Z,28.64
2018-04-10T14:30:47.963Z,28.39
2018-04-10T14:33:17.307Z,28.68
2018-04-10T14:35:47.377Z,29.02
2018-04-10T14:38:16.418Z,29.16
2018-04-10T14:40:46.829Z,30.02
2018-04-10T14:43:15.893Z,28.16
2018-04-10T14:45:46.045Z,27.82
2018-04-10T14:48:15.700Z,27.87
2018-04-10T14:50:46.125Z,28.32
2018-04-10T14:53:15.198Z,28.08
2018-04-10T14:55:44.502Z,28.01
2018-04-10T14:58:13.543Z,28.18
2018-04-10T15:03:18.565Z,27.52
2018-04-10T15:05:47.636Z,27.55
2018-04-10T15:08:17.317Z,28.05
2018-04-10T15:13:22.202Z,28.14
2018-04-10T15:15:51.263Z,28.78
2018-04-10T15:18:21.497Z,29.79
2018-04-10T15:20:50.583Z,29.69
2018-04-10T15:23:19.649Z,30.13
2018-04-10T15:25:48.714Z,29.98
2018-04-10T15:28:17.954Z,29.53
2018-04-10T15:30:47.354Z,30.79
2018-04-10T15:33:16.414Z,30.19
2018-04-10T15:35:47.302Z,30.10
2018-04-10T15:38:17.254Z,29.29
2018-04-10T15:40:46.786Z,28.54
2018-04-10T15:43:15.866Z,27.78
2018-04-10T15:45:45.801Z,26.61
2018-04-10T15:48:15.320Z,24.98
2018-04-10T15:50:45.330Z,25.27
2018-04-10T15:53:14.793Z,26.06
2018-04-10T15:55:44.789Z,26.80
2018-04-10T15:58:13.849Z,27.02
2018-04-10T16:00:45.054Z,27.71
2018-04-10T16:03:14.082Z,26.72
2018-04-10T16:08:38.941Z,28.94
2018-04-10T16:11:08.424Z,28.82
2018-04-10T16:13:37.481Z,29.03
2018-04-10T16:16:06.521Z,29.82
2018-04-10T16:18:36.707Z,30.34
2018-04-10T16:21:05.747Z,30.71
2018-04-10T16:23:35.183Z,30.36
2018-04-10T16:26:04.217Z,31.67
2018-04-10T16:28:33.272Z,32.41
2018-04-10T16:31:02.320Z,32.23
2018-04-10T16:33:31.381Z,32.30
2018-04-10T16:36:00.442Z,32.63
2018-04-10T16:38:29.846Z,34.78
2018-04-10T16:43:35.390Z,34.20
2018-04-10T16:46:04.473Z,37.40
2018-04-10T16:48:33.837Z,37.50
2018-04-10T16:51:02.889Z,38.84
2018-04-10T16:56:07.668Z,37.92
2018-04-10T16:58:36.721Z,36.51
2018-04-10T17:01:06.699Z,36.93
2018-04-10T17:03:35.758Z,37.84
2018-04-10T17:08:40.541Z,38.02
2018-04-10T17:11:09.657Z,38.33
2018-04-10T17:13:38.719Z,37.82
2018-04-10T17:16:07.802Z,40.05
2018-04-10T17:18:37.131Z,38.53
2018-04-10T17:21:06.177Z,38.13
2018-04-10T17:23:35.230Z,40.38
2018-04-10T17:26:04.285Z,39.89
2018-04-10T17:28:33.946Z,40.09
2018-04-10T17:31:03.263Z,40.50
2018-04-10T17:36:09.110Z,40.23
2018-04-10T17:38:38.146Z,42.98
2018-04-10T17:41:07.251Z,40.64
2018-04-10T17:43:36.298Z,42.24
2018-04-10T17:46:05.350Z,46.51
2018-04-10T17:48:34.857Z,47.89
2018-04-10T17:51:03.982Z,50.26
2018-04-10T17:53:34.618Z,49.87
2018-04-10T17:56:05.492Z,52.62
2018-04-10T17:58:39.494Z,49.65
2018-04-10T18:01:12.547Z,51.80
2018-04-10T18:03:45.116Z,53.37
2018-04-10T18:06:16.433Z,52.77
2018-04-10T18:08:45.907Z,52.66
2018-04-10T18:11:19.558Z,54.74
2018-04-10T18:13:50.023Z,55.64
2018-04-10T18:16:22.860Z,55.72
2018-04-10T18:18:56.503Z,55.33
2018-04-10T18:21:30.027Z,54.11
2018-04-10T18:24:04.417Z,52.90
2018-04-10T18:26:41.997Z,63.97
2018-04-10T18:29:15.781Z,60.16
2018-04-10T18:31:49.447Z,57.25
2018-04-10T18:34:19.368Z,57.88
2018-04-10T18:36:52.277Z,57.39
2018-04-10T18:39:26.056Z,58.83
2018-04-10T18:42:01.145Z,59.12
2018-04-10T18:44:36.549Z,59.19
2018-04-10T18:52:20.213Z,61.17
2018-04-10T18:54:54.761Z,62.26
2018-04-10T18:57:27.907Z,63.84
2018-04-10T19:00:01.698Z,64.13
2018-04-10T19:02:35.855Z,65.08
2018-04-10T19:10:31.859Z,65.08
2018-04-10T19:13:06.891Z,65.32
2018-04-10T19:15:36.510Z,65.63
2018-04-10T19:18:05.617Z,65.50
2018-04-10T19:20:34.611Z,66.17
2018-04-10T19:23:03.674Z,65.13
2018-04-10T19:25:32.744Z,66.45
2018-04-10T19:28:01.804Z,66.25
2018-04-10T19:30:30.865Z,66.65
2018-04-10T19:33:00.041Z,67.86
2018-04-10T19:35:29.183Z,68.36
2018-04-10T19:37:58.248Z,68.17
2018-04-10T19:40:30.752Z,67.21
2018-04-10T19:42:59.854Z,67.43
2018-04-10T19:45:28.935Z,68.22
2018-04-10T19:47:58.001Z,68.50
2018-04-10T19:55:40.045Z,65.99
2018-04-10T20:00:44.804Z,66.43
2018-04-10T20:03:15.005Z,66.89
2018-04-10T20:05:44.060Z,68.29
2018-04-10T20:08:14.028Z,67.56
2018-04-10T20:10:43.094Z,69.47
2018-04-10T20:13:12.162Z,70.96
2018-04-10T20:15:41.249Z,72.47
2018-04-10T20:18:10.310Z,73.73
2018-04-10T20:23:18.912Z,73.41
2018-04-10T20:25:50.499Z,74.76
2018-04-10T20:28:20.038Z,76.01
2018-04-10T20:30:50.105Z,78.35
2018-04-10T20:33:21.885Z,78.94
2018-04-10T20:35:52.500Z,79.81
2018-04-10T20:38:22.289Z,79.37
2018-04-10T20:40:52.322Z,80.23
2018-04-10T20:43:27.063Z,78.68
2018-04-10T20:45:56.301Z,78.67
2018-04-10T20:48:25.624Z,78.02
2018-04-10T20:50:54.729Z,80.37
2018-04-10T20:56:00.278Z,77.98
2018-04-10T20:58:29.919Z,80.75
2018-04-10T21:01:00.125Z,81.62
2018-04-10T21:03:29.564Z,81.05
2018-04-10T21:05:59.033Z,80.52
2018-04-10T21:08:28.386Z,81.04
2018-04-10T21:10:58.661Z,80.97
2018-04-10T21:13:27.982Z,79.69
2018-04-10T21:15:57.596Z,81.75
2018-04-10T21:21:03.474Z,85.17
2018-04-10T21:23:32.769Z,85.52
2018-04-10T21:26:02.086Z,84.00
2018-04-10T21:28:31.169Z,84.73
2018-04-10T21:31:00.259Z,84.02
2018-04-10T21:33:29.406Z,84.79
2018-04-10T21:35:58.546Z,85.14
2018-04-10T21:38:29.580Z,85.11
2018-04-10T21:43:34.606Z,84.38
2018-04-10T21:46:04.619Z,83.31
2018-04-10T21:48:34.823Z,84.91
2018-04-10T21:51:04.084Z,85.00
2018-04-10T21:53:33.294Z,84.05
2018-04-10T21:56:02.517Z,81.65
2018-04-10T21:58:32.392Z,84.07
2018-04-10T22:01:01.449Z,84.90
2018-04-10T22:03:30.538Z,85.40
2018-04-10T22:06:00.812Z,84.96
2018-04-10T22:08:29.849Z,84.85
2018-04-10T22:10:58.905Z,83.35
2018-04-10T22:13:28.021Z,82.44
2018-04-10T22:15:57.093Z,84.34
2018-04-10T22:18:26.141Z,82.06
2018-04-10T22:20:55.210Z,84.21
2018-04-10T22:23:25.359Z,83.45
2018-04-10T22:25:54.476Z,81.97
2018-04-10T22:30:59.446Z,80.73
2018-04-10T22:33:29.477Z,81.64
2018-04-10T22:35:58.467Z,82.77
2018-04-10T22:38:27.526Z,82.71
2018-04-10T22:40:57.682Z,82.42
2018-04-10T22:43:26.750Z,82.83
2018-04-10T22:45:55.811Z,83.94
2018-04-10T22:48:24.884Z,83.50
2018-04-10T22:50:54.129Z,83.97
2018-04-10T22:53:24.158Z,84.65
2018-04-10T22:55:53.225Z,86.65
2018-04-10T22:58:23.283Z,87.05
2018-04-10T23:00:52.466Z,86.98
2018-04-10T23:03:21.522Z,87.80
2018-04-10T23:05:50.585Z,85.93
2018-04-10T23:08:20.655Z,85.54
2018-04-10T23:10:49.921Z,86.71
2018-04-10T23:13:18.953Z,86.49
2018-04-10T23:15:48.932Z,88.03
2018-04-10T23:18:18.232Z,87.63
2018-04-10T23:20:48.197Z,87.08
2018-04-10T23:23:18.238Z,88.16
2018-04-10T23:25:59.071Z,89.17
2018-04-10T23:28:28.103Z,88.83
2018-04-10T23:30:57.274Z,88.40
2018-04-10T23:36:01.591Z,87.39
2018-04-10T23:38:30.645Z,87.23
2018-04-10T23:40:59.770Z,87.92
2018-04-10T23:43:28.857Z,87.41
2018-04-10T23:45:58.817Z,86.65
2018-04-10T23:48:27.875Z,87.07
2018-04-10T23:50:56.926Z,86.43
2018-04-10T23:53:25.983Z,85.73
2018-04-10T23:55:55.081Z,85.27
2018-04-10T23:58:24.160Z,85.09
